createdAt,value
2022-09-05T00:02:07.054Z,5.32
2022-09-05T00:07:59.621Z,5.72
2022-09-05T00:13:07.564Z,5.68
2022-09-05T00:23:29.115Z,5.70
2022-09-05T00:24:27.281Z,5.97
2022-09-05T00:29:07.391Z,5.43
2022-09-05T00:34:47.834Z,5.45
2022-09-05T00:39:50.656Z,5.97
2022-09-05T00:45:14.427Z,5.32
2022-09-05T00:50:43.373Z,5.88
2022-09-05T00:56:17.893Z,5.80
2022-09-05T01:01:28.268Z,5.55
2022-09-05T01:06:46.306Z,5.20
2022-09-05T01:11:47.814Z,6.00
2022-09-05T01:17:24.691Z,5.60
2022-09-05T01:22:54.655Z,5.28
2022-09-05T01:29:13.106Z,5.93
2022-09-05T01:34:05.135Z,6.10
2022-09-05T01:40:11.075Z,6.00
2022-09-05T01:44:59.362Z,6.18
2022-09-05T01:50:20.242Z,6.03
2022-09-05T01:56:01.939Z,6.65
2022-09-05T02:01:33.207Z,6.25
2022-09-05T02:06:54.786Z,6.30
2022-09-05T02:12:20.249Z,5.72
2022-09-05T02:17:51.102Z,6.72
2022-09-05T02:23:24.626Z,6.65
2022-09-05T02:28:38.497Z,6.32
2022-09-05T02:33:47.633Z,7.35
2022-09-05T02:42:51.195Z,6.55
2022-09-05T02:45:15.332Z,6.60
2022-09-05T02:54:12.846Z,6.75
2022-09-05T02:58:05.702Z,7.22
2022-09-05T03:01:55.778Z,6.43
2022-09-05T03:12:31.339Z,6.90
2022-09-05T03:18:20.227Z,7.05
2022-09-05T03:23:33.120Z,7.65
2022-09-05T03:29:12.012Z,7.18
2022-09-05T03:39:18.140Z,6.75
2022-09-05T03:44:31.580Z,7.47
2022-09-05T03:57:06.951Z,7.45
2022-09-05T03:57:16.806Z,6.88
2022-09-05T04:02:59.987Z,7.47
2022-09-05T04:08:31.225Z,6.72
2022-09-05T04:12:52.264Z,7.80
2022-09-05T04:18:03.872Z,6.95
2022-09-05T04:23:30.658Z,8.02
2022-09-05T04:28:44.560Z,7.82
2022-09-05T04:34:10.472Z,5.88
2022-09-05T04:39:17.934Z,7.65
2022-09-05T04:44:27.568Z,7.80
2022-09-05T04:49:34.279Z,6.70
2022-09-05T04:55:10.900Z,7.28
2022-09-05T05:06:04.495Z,7.38
2022-09-05T05:06:17.755Z,7.93
2022-09-05T05:18:02.674Z,7.03
2022-09-05T05:18:07.470Z,7.45
2022-09-05T05:22:18.135Z,7.45
2022-09-05T05:27:26.012Z,7.35
2022-09-05T05:32:46.030Z,7.55
2022-09-05T05:37:55.629Z,7.78
2022-09-05T05:48:18.465Z,7.87
2022-09-05T05:53:51.666Z,7.65
2022-09-05T05:59:11.237Z,7.15
2022-09-05T06:13:00.890Z,7.20
2022-09-05T06:15:26.698Z,7.60
2022-09-05T06:22:06.749Z,6.68
2022-09-05T06:26:14.431Z,7.28
2022-09-05T06:31:55.393Z,7.00
2022-09-05T06:37:31.643Z,6.53
2022-09-05T06:42:57.858Z,7.07
2022-09-05T06:48:44.790Z,7.32
2022-09-05T06:54:32.535Z,7.20
2022-09-05T06:59:55.528Z,6.00
2022-09-05T07:05:31.421Z,6.28
2022-09-05T07:10:39.845Z,6.60
2022-09-05T07:16:26.490Z,5.55
2022-09-05T07:22:00.573Z,6.17
2022-09-05T07:27:08.989Z,6.05
2022-09-05T07:32:19.260Z,6.72
2022-09-05T07:37:32.613Z,6.35
2022-09-05T07:43:09.917Z,6.05
2022-09-05T07:48:22.267Z,6.03
2022-09-05T07:56:51.098Z,5.88
2022-09-05T07:58:52.755Z,5.07
2022-09-05T08:03:56.047Z,5.30
2022-09-05T08:09:21.353Z,6.28
2022-09-05T08:14:55.024Z,5.80
2022-09-05T08:20:09.443Z,5.03
2022-09-05T08:25:19.470Z,5.35
2022-09-05T08:30:26.356Z,5.43
2022-09-05T08:35:38.237Z,4.95
2022-09-05T08:41:06.028Z,5.22
2022-09-05T08:46:40.814Z,5.30
2022-09-05T08:51:55.266Z,5.10
2022-09-05T08:57:28.233Z,4.68
2022-09-05T09:02:47.283Z,5.28
2022-09-05T09:08:08.167Z,4.80
2022-09-05T09:13:18.267Z,5.55
2022-09-05T09:18:21.509Z,4.95
2022-09-05T09:23:55.295Z,5.45
2022-09-05T09:29:04.186Z,4.68
2022-09-05T09:34:25.945Z,4.88
2022-09-05T09:39:38.268Z,3.92
2022-09-05T09:45:01.606Z,4.00
2022-09-05T09:50:45.070Z,4.43
2022-09-05T09:56:37.859Z,4.63
2022-09-05T10:05:01.318Z,4.20
2022-09-05T10:10:52.608Z,3.97
2022-09-05T10:13:26.906Z,4.05
2022-09-05T10:18:47.597Z,4.13
2022-09-05T10:23:57.943Z,3.63
2022-09-05T10:29:28.802Z,3.90
2022-09-05T10:35:12.789Z,4.00
2022-09-05T10:40:20.963Z,4.07
2022-09-05T10:45:37.939Z,3.83
2022-09-05T10:50:44.572Z,3.65
2022-09-05T10:55:52.398Z,4.25
2022-09-05T11:02:29.119Z,3.47
2022-09-05T11:06:46.669Z,3.97
2022-09-05T11:12:03.624Z,3.88
2022-09-05T11:17:12.633Z,3.63
2022-09-05T11:22:23.476Z,3.78
2022-09-05T11:27:40.231Z,3.70
2022-09-05T11:38:13.200Z,3.67
2022-09-05T11:40:07.048Z,3.83
2022-09-05T11:44:25.815Z,3.80
2022-09-05T11:49:54.495Z,3.95
2022-09-05T11:55:34.655Z,3.87
2022-09-05T12:00:52.204Z,3.45
2022-09-05T12:06:29.090Z,3.53
2022-09-05T12:12:06.424Z,3.42
2022-09-05T12:18:18.898Z,3.65
2022-09-05T12:23:47.553Z,3.85
2022-09-05T12:29:33.432Z,3.90
2022-09-05T12:36:07.009Z,4.00
2022-09-05T12:41:35.011Z,4.20
2022-09-05T12:51:08.853Z,4.00
2022-09-05T13:00:03.955Z,4.20
2022-09-05T13:03:06.706Z,3.33
2022-09-05T13:07:38.968Z,3.55
2022-09-05T13:14:49.646Z,4.03
2022-09-05T13:18:16.395Z,3.60
2022-09-05T13:23:24.105Z,4.00
2022-09-05T13:28:43.162Z,3.22
2022-09-05T13:37:59.533Z,4.18
2022-09-05T13:39:18.170Z,3.90
2022-09-05T13:44:27.413Z,3.75
2022-09-05T13:49:40.670Z,4.50
2022-09-05T13:55:10.651Z,3.92
2022-09-05T14:00:28.176Z,3.92
2022-09-05T14:05:51.947Z,3.58
2022-09-05T14:11:03.309Z,3.40
2022-09-05T14:16:12.472Z,3.28
2022-09-05T14:21:17.319Z,3.30
2022-09-05T14:26:42.397Z,3.40
2022-09-05T14:37:37.007Z,3.38
2022-09-05T14:38:00.925Z,3.38
2022-09-05T14:42:54.916Z,3.70
2022-09-05T14:48:13.340Z,3.60
2022-09-05T15:02:53.354Z,3.60
2022-09-05T15:12:14.943Z,3.38
2022-09-05T15:15:14.026Z,3.92
2022-09-05T15:20:37.115Z,3.90
2022-09-05T15:25:45.832Z,3.40
2022-09-05T15:31:05.094Z,5.60
2022-09-05T15:36:13.406Z,4.10
2022-09-05T15:41:22.720Z,4.00
2022-09-05T15:46:32.838Z,5.05
2022-09-05T15:51:45.251Z,3.78
2022-09-05T15:56:51.807Z,4.50
2022-09-05T16:01:58.918Z,3.95
2022-09-05T16:10:38.970Z,3.47
2022-09-05T16:12:46.385Z,3.72
2022-09-05T16:23:15.645Z,3.35
2022-09-05T16:23:41.500Z,3.50
2022-09-05T16:28:47.950Z,3.33
2022-09-05T16:33:49.726Z,3.83
2022-09-05T16:39:14.819Z,3.45
2022-09-05T16:44:22.892Z,3.00
2022-09-05T16:49:41.758Z,3.10
2022-09-05T16:54:56.444Z,3.40
2022-09-05T16:59:58.844Z,3.42
2022-09-05T17:05:06.685Z,3.63
2022-09-05T17:10:11.772Z,3.50
2022-09-05T17:15:26.251Z,3.25
2022-09-05T17:20:30.631Z,3.47
2022-09-05T17:29:30.887Z,3.20
2022-09-05T17:36:47.425Z,3.00
2022-09-05T17:42:18.294Z,8.38
2022-09-05T17:47:36.220Z,8.80
2022-09-05T17:53:26.779Z,7.90
2022-09-05T17:58:49.047Z,4.63
2022-09-05T18:03:52.019Z,3.95
2022-09-05T18:08:53.698Z,3.70
2022-09-05T18:14:01.264Z,3.97
2022-09-05T18:19:32.417Z,3.90
2022-09-05T18:24:45.140Z,4.15
2022-09-05T18:30:09.886Z,4.60
2022-09-05T18:35:27.916Z,4.47
2022-09-05T18:41:06.308Z,5.72
2022-09-05T18:46:22.943Z,5.20
2022-09-05T18:51:35.488Z,5.35
2022-09-05T18:57:03.027Z,5.63
2022-09-05T19:02:02.754Z,5.75
2022-09-05T19:07:30.142Z,5.65
2022-09-05T19:12:42.776Z,5.55
2022-09-05T19:18:26.271Z,5.57
2022-09-05T19:23:28.182Z,5.35
2022-09-05T19:36:54.259Z,5.05
2022-09-05T19:36:58.702Z,4.80
2022-09-05T19:41:39.929Z,5.22
2022-09-05T19:47:51.106Z,5.20
2022-09-05T19:50:29.707Z,5.07
2022-09-05T19:55:36.016Z,5.10
2022-09-05T20:00:40.543Z,5.05
2022-09-05T20:05:42.294Z,5.03
2022-09-05T20:10:43.886Z,5.00
2022-09-05T20:15:45.521Z,5.15
2022-09-05T20:20:56.905Z,4.80
2022-09-05T20:25:59.459Z,4.72
2022-09-05T20:31:08.484Z,4.43
2022-09-05T20:40:48.537Z,4.50
2022-09-05T20:43:20.080Z,4.45
2022-09-05T20:53:05.590Z,3.75
2022-09-05T20:54:26.822Z,4.37
2022-09-05T20:58:31.291Z,3.85
2022-09-05T21:03:39.752Z,3.92
2022-09-05T21:08:41.383Z,3.20
2022-09-05T21:13:52.415Z,3.60
2022-09-05T21:18:54.919Z,3.55
2022-09-05T21:23:59.563Z,3.40
2022-09-05T21:29:16.613Z,3.55
2022-09-05T21:34:25.609Z,3.50
2022-09-05T21:39:30.759Z,3.40
2022-09-05T21:47:39.037Z,3.50
2022-09-05T21:49:55.436Z,3.05
2022-09-05T21:59:21.314Z,3.72
2022-09-05T22:00:20.810Z,3.30
2022-09-05T22:05:25.346Z,3.28
2022-09-05T22:10:41.609Z,3.25
2022-09-05T22:15:49.543Z,2.95
2022-09-05T22:21:31.834Z,3.05
2022-09-05T22:26:16.829Z,3.20
2022-09-05T22:31:19.875Z,3.30
2022-09-05T22:36:21.772Z,2.70
2022-09-05T22:41:30.271Z,2.72
2022-09-05T22:46:32.881Z,2.78
2022-09-05T22:51:34.501Z,3.30
2022-09-05T22:56:38.093Z,2.42
2022-09-05T23:01:39.713Z,2.78
2022-09-05T23:06:41.358Z,2.60
2022-09-05T23:11:42.938Z,2.95
2022-09-05T23:16:44.534Z,2.67
2022-09-05T23:21:46.110Z,2.50
2022-09-05T23:26:47.696Z,2.70
2022-09-05T23:31:49.340Z,2.30
2022-09-05T23:36:51.002Z,2.40
2022-09-05T23:41:52.575Z,2.38
2022-09-05T23:46:54.156Z,2.50
2022-09-05T23:51:55.742Z,2.20
2022-09-05T23:56:57.439Z,2.38
